In Rescue
 
Open Full Screen Window  High Contrast Mode
Wind Gusting 00 knots
04
November 27, 2020 10:22 PM CST
Weather Information
Wind Direction
  170 °
Wind Speed
  04 kt (5 mph)
Wind Gust
  00 kt (0 mph)
Altimeter
30.09 in
Visibility
10 SM
Temperature
-01° C
30° F
Dewpoint
-05° C
23° F
Humidity
75%
1hr Rain Fall
00.00 in.
24hr Rain Fall
00.00 in.
Sky Condition
Missing
VFR

METAR KLYV 280422Z AUTO 17004KT 10SM M01/M05 A3009 RMK AO2

FAA Disclaimer: The data displayed is for advisory purposes only and is not to be used for flight planning or operations.
Missing Cloud Data